createdAt,value
2023-05-06T00:01:15.927Z,81.35
2023-05-06T00:03:47.043Z,70.90
2023-05-06T00:06:16.549Z,78.43
2023-05-06T00:08:47.966Z,71.38
2023-05-06T00:11:18.670Z,84.65
2023-05-06T00:13:49.205Z,68.78
2023-05-06T00:16:18.675Z,72.78
2023-05-06T00:18:48.201Z,68.43
2023-05-06T00:21:17.536Z,81.70
2023-05-06T00:23:45.743Z,63.10
2023-05-06T00:26:15.111Z,66.60
2023-05-06T00:28:45.711Z,58.25
2023-05-06T00:31:16.298Z,60.28
2023-05-06T00:33:45.150Z,67.53
2023-05-06T00:36:13.322Z,63.65
2023-05-06T00:38:41.451Z,66.85
2023-05-06T00:41:12.324Z,64.35
2023-05-06T00:43:41.042Z,43.53
2023-05-06T00:46:11.907Z,60.33
2023-05-06T00:48:42.540Z,52.30
2023-05-06T00:51:12.526Z,56.20
2023-05-06T00:53:43.773Z,63.72
2023-05-06T00:56:13.384Z,63.10
2023-05-06T00:58:43.465Z,74.00
2023-05-06T01:01:13.307Z,72.97
2023-05-06T01:03:42.773Z,68.50
2023-05-06T01:06:21.355Z,65.75
2023-05-06T01:08:58.968Z,66.35
2023-05-06T01:11:40.860Z,53.90
2023-05-06T01:14:18.815Z,84.30
2023-05-06T01:16:54.712Z,66.97
2023-05-06T01:19:41.749Z,81.10
2023-05-06T01:22:12.584Z,58.10
2023-05-06T01:24:43.773Z,64.45
2023-05-06T01:27:13.772Z,78.22
2023-05-06T01:29:46.114Z,99.70
2023-05-06T01:32:35.984Z,78.90
2023-05-06T01:35:19.343Z,79.55
2023-05-06T01:37:57.031Z,74.57
2023-05-06T01:40:31.783Z,76.22
2023-05-06T01:43:03.094Z,82.85
2023-05-06T01:45:36.085Z,88.90
2023-05-06T01:48:06.752Z,87.03
2023-05-06T01:50:38.148Z,99.63
2023-05-06T01:53:06.329Z,142.10
2023-05-06T01:55:38.205Z,155.32
2023-05-06T01:58:06.523Z,136.95
2023-05-06T02:00:36.266Z,208.48
2023-05-06T02:03:08.188Z,256.05
2023-05-06T02:05:36.834Z,231.68
2023-05-06T02:08:06.018Z,525.80
2023-05-06T02:10:36.883Z,151.55
2023-05-06T02:15:39.972Z,285.45
2023-05-06T02:18:12.868Z,256.42
2023-05-06T02:20:40.956Z,187.38
2023-05-06T02:23:16.197Z,125.82
2023-05-06T02:25:46.482Z,179.88
2023-05-06T02:28:15.810Z,191.57
2023-05-06T02:30:45.252Z,133.52
2023-05-06T02:33:13.453Z,154.07
2023-05-06T02:35:44.075Z,127.50
2023-05-06T02:38:13.558Z,98.57
2023-05-06T02:40:42.903Z,95.82
2023-05-06T02:43:12.580Z,92.38
2023-05-06T02:45:42.011Z,99.05
2023-05-06T02:48:10.268Z,114.78
2023-05-06T02:50:39.585Z,126.55
2023-05-06T02:53:08.877Z,199.65
2023-05-06T02:55:38.346Z,260.60
2023-05-06T02:58:07.670Z,570.55
2023-05-06T03:00:39.519Z,383.13
2023-05-06T03:03:08.904Z,202.25
2023-05-06T03:05:38.257Z,159.63
2023-05-06T03:08:08.892Z,158.88
2023-05-06T03:10:38.873Z,283.45
2023-05-06T03:13:08.338Z,266.38
2023-05-06T03:15:39.409Z,247.70
2023-05-06T03:18:10.351Z,284.95
2023-05-06T03:20:39.834Z,259.25
2023-05-06T03:23:09.141Z,281.02
2023-05-06T03:25:38.704Z,400.63
2023-05-06T03:28:09.749Z,126.70
2023-05-06T03:30:41.369Z,301.85
2023-05-06T03:33:11.218Z,189.70
2023-05-06T03:35:40.974Z,290.10
2023-05-06T03:38:11.612Z,300.27
2023-05-06T03:40:52.454Z,304.00
2023-05-06T03:43:21.971Z,339.50
2023-05-06T03:45:55.495Z,275.80
2023-05-06T03:48:25.794Z,256.83
2023-05-06T03:50:54.744Z,285.38
2023-05-06T03:53:24.179Z,216.02
2023-05-06T03:55:53.439Z,307.88
2023-05-06T04:00:53.705Z,177.93
2023-05-06T04:03:24.646Z,248.05
2023-05-06T04:05:53.574Z,316.30
2023-05-06T04:08:26.660Z,291.25
2023-05-06T04:10:57.051Z,309.40
2023-05-06T04:13:30.430Z,260.50
2023-05-06T04:16:01.333Z,267.02
2023-05-06T04:18:38.928Z,311.25
2023-05-06T04:23:44.295Z,198.18
2023-05-06T04:26:17.242Z,129.85
2023-05-06T04:28:48.105Z,214.05
2023-05-06T04:31:17.908Z,213.90
2023-05-06T04:33:54.597Z,268.95
2023-05-06T04:36:27.979Z,178.40
2023-05-06T04:39:24.705Z,305.23
2023-05-06T04:41:54.403Z,170.05
2023-05-06T04:44:30.850Z,208.18
2023-05-06T04:47:02.105Z,131.63
2023-05-06T04:49:32.142Z,110.60
2023-05-06T04:52:03.440Z,146.57
2023-05-06T04:54:34.185Z,186.07
2023-05-06T04:57:05.435Z,153.50
2023-05-06T04:59:34.761Z,167.20
2023-05-06T05:02:05.829Z,202.65
2023-05-06T05:04:35.362Z,196.73
2023-05-06T05:07:03.525Z,187.82
2023-05-06T05:09:33.546Z,200.23
2023-05-06T05:12:03.794Z,165.30
2023-05-06T05:14:37.832Z,101.55
2023-05-06T05:17:06.876Z,173.60
2023-05-06T05:19:38.139Z,218.23
2023-05-06T05:22:08.110Z,551.15
2023-05-06T05:24:36.316Z,100.03
2023-05-06T05:27:04.480Z,113.15
2023-05-06T05:29:33.858Z,160.10
2023-05-06T05:32:06.714Z,141.38
2023-05-06T05:34:36.836Z,128.75
2023-05-06T05:37:07.586Z,131.52
2023-05-06T05:39:35.933Z,149.90
2023-05-06T05:42:04.132Z,135.98
2023-05-06T05:44:34.673Z,149.15
2023-05-06T05:47:05.854Z,116.50
2023-05-06T05:49:37.208Z,175.70
2023-05-06T05:52:08.699Z,103.15
2023-05-06T05:54:38.698Z,89.30
2023-05-06T05:57:08.485Z,40.70
2023-05-06T05:59:38.540Z,108.75
2023-05-06T06:02:08.796Z,60.00
2023-05-06T06:04:38.623Z,62.80
2023-05-06T06:07:08.164Z,69.53
2023-05-06T06:09:41.874Z,65.40
2023-05-06T06:12:11.409Z,88.05
2023-05-06T06:14:41.515Z,87.45
2023-05-06T06:17:11.012Z,80.47
2023-05-06T06:22:10.379Z,67.05
2023-05-06T06:24:42.567Z,58.25
2023-05-06T06:27:10.964Z,55.35
2023-05-06T06:29:40.463Z,80.85
2023-05-06T06:32:09.764Z,33.15
2023-05-06T06:34:40.805Z,28.77
2023-05-06T06:37:12.323Z,24.35
2023-05-06T06:39:43.424Z,25.65
2023-05-06T06:42:12.950Z,24.77
2023-05-06T06:44:50.643Z,19.35
2023-05-06T06:49:50.660Z,17.60
2023-05-06T06:52:19.127Z,21.48
2023-05-06T06:57:16.693Z,22.83
2023-05-06T06:59:44.786Z,20.33
2023-05-06T07:02:14.438Z,23.02
2023-05-06T07:07:12.094Z,24.48
2023-05-06T07:09:40.630Z,23.77
2023-05-06T07:12:10.003Z,22.48
2023-05-06T07:14:39.684Z,22.60
2023-05-06T07:17:10.311Z,22.35
2023-05-06T07:19:39.645Z,19.88
2023-05-06T07:22:10.144Z,20.63
2023-05-06T07:24:40.802Z,16.73
2023-05-06T07:27:10.139Z,21.95
2023-05-06T07:29:39.693Z,22.38
2023-05-06T07:32:08.220Z,24.50
2023-05-06T07:34:38.001Z,24.20
2023-05-06T07:37:08.003Z,23.92
2023-05-06T07:39:39.956Z,20.88
2023-05-06T07:42:12.939Z,21.55
2023-05-06T07:44:42.366Z,20.80
2023-05-06T07:47:11.824Z,18.35
2023-05-06T07:52:10.453Z,15.13
2023-05-06T07:54:39.968Z,19.58
2023-05-06T07:57:10.961Z,17.13
2023-05-06T07:59:40.674Z,15.25
2023-05-06T08:02:10.120Z,12.57
2023-05-06T08:04:39.569Z,15.88
2023-05-06T08:07:08.926Z,14.05
2023-05-06T08:09:37.132Z,13.82
2023-05-06T08:12:08.506Z,13.32
2023-05-06T08:14:37.914Z,17.20
2023-05-06T08:17:07.200Z,15.27
2023-05-06T08:19:36.505Z,14.65
2023-05-06T08:22:05.825Z,14.95
2023-05-06T08:24:34.005Z,16.67
2023-05-06T08:27:02.228Z,15.07
2023-05-06T08:32:03.186Z,12.80
2023-05-06T08:34:36.089Z,13.45
2023-05-06T08:37:04.685Z,13.45
2023-05-06T08:39:35.199Z,14.65
2023-05-06T08:42:05.896Z,13.20
2023-05-06T08:44:38.771Z,14.13
2023-05-06T08:47:08.641Z,14.00
2023-05-06T08:49:40.939Z,13.88
2023-05-06T08:52:10.857Z,12.05
2023-05-06T08:54:41.930Z,11.48
2023-05-06T08:57:13.904Z,13.75
2023-05-06T08:59:46.436Z,11.75
2023-05-06T09:02:15.110Z,14.65
2023-05-06T09:04:45.609Z,10.90
2023-05-06T09:07:16.215Z,9.73
2023-05-06T09:09:45.796Z,11.02
2023-05-06T09:12:14.943Z,10.02
2023-05-06T09:14:46.596Z,9.00
2023-05-06T09:17:24.126Z,12.32
2023-05-06T09:19:53.727Z,8.85
2023-05-06T09:22:24.830Z,9.23
2023-05-06T09:24:56.855Z,9.25
2023-05-06T09:27:26.543Z,9.18
2023-05-06T09:30:07.214Z,8.88
2023-05-06T09:32:39.848Z,8.00
2023-05-06T09:35:12.916Z,6.88
2023-05-06T09:37:43.105Z,9.57
2023-05-06T09:40:15.203Z,7.93
2023-05-06T09:42:45.886Z,6.15
2023-05-06T09:45:18.031Z,7.28
2023-05-06T09:47:49.708Z,6.00
2023-05-06T09:50:22.299Z,8.00
2023-05-06T09:52:51.912Z,5.78
2023-05-06T09:55:23.501Z,5.85
2023-05-06T09:57:52.025Z,5.50
2023-05-06T10:00:28.308Z,7.97
2023-05-06T10:03:01.081Z,4.57
2023-05-06T10:05:31.892Z,6.75
2023-05-06T10:08:01.663Z,5.13
2023-05-06T10:10:31.981Z,3.20
2023-05-06T10:13:04.713Z,3.50
2023-05-06T10:15:35.399Z,2.65
2023-05-06T10:18:05.773Z,3.08
2023-05-06T10:20:37.202Z,4.45
2023-05-06T10:23:21.990Z,3.63
2023-05-06T10:25:55.123Z,2.88
2023-05-06T10:28:31.087Z,3.67
2023-05-06T10:31:03.391Z,3.63
2023-05-06T10:33:33.498Z,4.55
2023-05-06T10:36:17.705Z,3.63
2023-05-06T10:38:52.370Z,3.78
2023-05-06T10:41:23.427Z,1.88
2023-05-06T10:43:56.712Z,1.55
2023-05-06T10:46:29.905Z,2.38
2023-05-06T10:49:25.232Z,2.03
2023-05-06T10:52:21.196Z,1.73
2023-05-06T10:54:52.649Z,2.55
2023-05-06T10:57:26.517Z,2.35
2023-05-06T10:59:56.548Z,4.05
2023-05-06T11:02:26.408Z,1.85
2023-05-06T11:05:03.131Z,2.40
2023-05-06T11:07:32.071Z,3.00
2023-05-06T11:10:06.442Z,2.13
2023-05-06T11:12:50.785Z,2.38
2023-05-06T11:15:42.173Z,3.28
2023-05-06T11:18:46.363Z,2.67
2023-05-06T11:21:40.855Z,2.78
2023-05-06T11:24:14.114Z,2.35
2023-05-06T11:26:44.683Z,2.22
2023-05-06T11:29:17.834Z,2.28
2023-05-06T11:31:49.184Z,2.60
2023-05-06T11:34:27.929Z,1.77
2023-05-06T11:37:06.596Z,4.25
2023-05-06T11:39:40.776Z,3.25
2023-05-06T11:42:11.990Z,3.95
2023-05-06T11:44:41.052Z,4.07
2023-05-06T11:47:11.517Z,1.90
2023-05-06T11:49:44.109Z,2.28
2023-05-06T11:52:14.349Z,2.80
2023-05-06T11:54:44.185Z,2.88
2023-05-06T11:57:15.771Z,5.63
2023-05-06T11:59:45.227Z,3.75
2023-05-06T12:02:17.618Z,2.53
2023-05-06T12:04:50.292Z,2.97
2023-05-06T12:07:19.001Z,2.63
2023-05-06T12:09:50.639Z,3.13
2023-05-06T12:12:23.260Z,3.78
2023-05-06T12:14:54.694Z,3.80
2023-05-06T12:17:23.856Z,2.92
2023-05-06T12:19:54.976Z,2.53
2023-05-06T12:22:25.652Z,3.50
2023-05-06T12:24:55.333Z,3.03
2023-05-06T12:27:32.432Z,4.47
2023-05-06T12:30:04.478Z,2.95
2023-05-06T12:32:34.412Z,3.03
2023-05-06T12:35:07.434Z,3.08
2023-05-06T12:37:38.168Z,4.97
2023-05-06T12:40:17.097Z,5.28
2023-05-06T12:42:46.776Z,3.80
2023-05-06T12:45:15.901Z,3.40
2023-05-06T12:47:56.453Z,5.63
2023-05-06T12:50:37.909Z,3.17
2023-05-06T12:53:10.914Z,3.15
2023-05-06T12:55:42.465Z,3.63
2023-05-06T12:58:18.423Z,3.17
2023-05-06T13:00:49.298Z,2.15
2023-05-06T13:03:19.389Z,2.90
2023-05-06T13:05:52.996Z,3.75
2023-05-06T13:08:21.169Z,3.13
2023-05-06T13:10:50.793Z,2.88
2023-05-06T13:13:19.140Z,2.03
2023-05-06T13:15:48.846Z,3.83
2023-05-06T13:18:17.207Z,4.45
2023-05-06T13:20:45.967Z,3.03
2023-05-06T13:23:15.937Z,3.15
2023-05-06T13:26:00.392Z,2.38
2023-05-06T13:28:37.838Z,4.32
2023-05-06T13:31:09.162Z,3.53
2023-05-06T13:33:38.734Z,2.08
2023-05-06T13:36:08.986Z,2.92
2023-05-06T13:38:39.926Z,3.13
2023-05-06T13:41:08.931Z,3.75
2023-05-06T13:43:37.596Z,4.03
2023-05-06T13:46:06.311Z,3.65
2023-05-06T13:48:36.100Z,3.10
2023-05-06T13:51:04.694Z,3.13
2023-05-06T13:53:32.926Z,3.00
2023-05-06T13:56:02.540Z,4.50
2023-05-06T13:58:32.382Z,3.70
2023-05-06T14:01:01.834Z,5.10
2023-05-06T14:03:32.629Z,5.07
2023-05-06T14:06:03.525Z,2.75
2023-05-06T14:08:32.762Z,4.35
2023-05-06T14:11:05.017Z,4.78
2023-05-06T14:13:35.277Z,4.45
2023-05-06T14:16:04.895Z,3.40
2023-05-06T14:18:34.875Z,3.55
2023-05-06T14:21:03.612Z,2.53
2023-05-06T14:23:32.495Z,3.08
2023-05-06T14:26:04.852Z,2.53
2023-05-06T14:28:32.983Z,2.90
2023-05-06T14:31:02.394Z,3.33
2023-05-06T14:33:31.765Z,3.00
2023-05-06T14:36:04.433Z,2.47
2023-05-06T14:38:34.229Z,3.05
2023-05-06T14:41:05.142Z,2.63
2023-05-06T14:43:33.393Z,2.28
2023-05-06T14:46:03.172Z,2.22
2023-05-06T14:48:33.990Z,6.30
2023-05-06T14:51:02.404Z,2.97
2023-05-06T14:53:31.885Z,3.60
2023-05-06T14:56:04.526Z,7.30
2023-05-06T14:58:37.264Z,4.47
2023-05-06T15:01:05.955Z,3.92
2023-05-06T15:03:36.324Z,4.40
2023-05-06T15:06:05.468Z,5.03
2023-05-06T15:08:37.402Z,3.40
2023-05-06T15:11:06.028Z,4.22
2023-05-06T15:13:35.591Z,2.75
2023-05-06T15:16:05.065Z,3.05
2023-05-06T15:18:33.218Z,2.88
2023-05-06T15:21:02.705Z,3.33
2023-05-06T15:23:32.048Z,3.20
2023-05-06T15:26:01.652Z,3.85
2023-05-06T15:28:30.213Z,3.35
2023-05-06T15:30:59.963Z,4.22
2023-05-06T15:33:29.499Z,2.67
2023-05-06T15:36:00.231Z,3.15
2023-05-06T15:38:28.653Z,2.70
2023-05-06T15:40:56.906Z,4.50
2023-05-06T15:43:36.054Z,4.65
2023-05-06T15:46:09.598Z,3.17
2023-05-06T15:48:39.052Z,3.83
2023-05-06T15:51:08.620Z,7.50
2023-05-06T15:53:40.575Z,4.22
2023-05-06T15:56:18.212Z,4.25
2023-05-06T15:58:48.528Z,3.90
2023-05-06T16:01:25.371Z,4.38
2023-05-06T16:04:08.091Z,3.38
2023-05-06T16:06:37.837Z,3.78
2023-05-06T16:09:07.485Z,3.38
2023-05-06T16:11:36.166Z,2.70
2023-05-06T16:14:05.719Z,2.70
2023-05-06T16:16:38.071Z,3.40
2023-05-06T16:19:08.472Z,2.80
2023-05-06T16:21:39.104Z,3.05
2023-05-06T16:24:08.962Z,2.92
2023-05-06T16:26:39.111Z,2.25
2023-05-06T16:29:07.745Z,2.90
2023-05-06T16:31:39.024Z,3.13
2023-05-06T16:34:08.550Z,2.90
2023-05-06T16:36:39.171Z,3.47
2023-05-06T16:39:08.090Z,2.55
2023-05-06T16:41:38.780Z,3.88
2023-05-06T16:44:08.121Z,3.88
2023-05-06T16:46:39.285Z,4.10
2023-05-06T16:49:07.543Z,2.85
2023-05-06T16:51:36.202Z,4.63
2023-05-06T16:54:07.234Z,2.60
2023-05-06T16:56:50.874Z,2.75
2023-05-06T16:59:22.690Z,2.72
2023-05-06T17:01:54.884Z,3.25
2023-05-06T17:04:27.153Z,2.47
2023-05-06T17:06:55.963Z,3.42
2023-05-06T17:09:25.468Z,3.08
2023-05-06T17:11:53.680Z,2.13
2023-05-06T17:14:23.631Z,2.60
2023-05-06T17:16:54.464Z,3.67
2023-05-06T17:19:25.219Z,6.20
2023-05-06T17:21:54.693Z,5.28
2023-05-06T17:24:25.283Z,3.28
2023-05-06T17:26:53.685Z,4.32
2023-05-06T17:29:23.359Z,5.38
2023-05-06T17:31:55.654Z,6.78
2023-05-06T17:34:26.002Z,4.30
2023-05-06T17:36:55.969Z,4.78
2023-05-06T17:39:26.521Z,3.28
2023-05-06T17:41:55.839Z,4.75
2023-05-06T17:44:25.312Z,6.38
2023-05-06T17:46:56.180Z,4.10
2023-05-06T17:49:24.427Z,4.82
2023-05-06T17:54:22.627Z,4.30
2023-05-06T17:56:54.040Z,6.25
2023-05-06T17:59:26.253Z,3.10
2023-05-06T18:01:59.318Z,6.35
2023-05-06T18:04:28.947Z,5.78
2023-05-06T18:06:58.335Z,4.70
2023-05-06T18:09:27.774Z,6.05
2023-05-06T18:14:25.418Z,6.43
2023-05-06T18:16:55.165Z,2.85
2023-05-06T18:19:26.327Z,4.78
2023-05-06T18:21:54.831Z,4.28
2023-05-06T18:24:24.687Z,6.03
2023-05-06T18:26:54.390Z,2.85
2023-05-06T18:29:24.974Z,7.43
2023-05-06T18:31:56.082Z,6.50
2023-05-06T18:34:27.050Z,6.28
2023-05-06T18:36:59.083Z,7.40
2023-05-06T18:39:28.395Z,4.80
2023-05-06T18:41:58.918Z,6.18
2023-05-06T18:44:28.577Z,8.30
2023-05-06T18:46:56.935Z,5.78
2023-05-06T18:49:27.433Z,6.97
2023-05-06T18:51:58.520Z,6.05
2023-05-06T18:54:28.181Z,6.10
2023-05-06T18:56:58.690Z,7.10
2023-05-06T18:59:27.571Z,7.90
2023-05-06T19:01:58.092Z,6.82
2023-05-06T19:04:29.025Z,7.57
2023-05-06T19:06:57.293Z,7.55
2023-05-06T19:09:27.877Z,7.43
2023-05-06T19:11:57.228Z,7.00
2023-05-06T19:14:27.994Z,8.07
2023-05-06T19:16:58.110Z,7.47
2023-05-06T19:19:29.174Z,5.80
2023-05-06T19:21:59.118Z,7.38
2023-05-06T19:24:29.025Z,7.07
2023-05-06T19:26:57.312Z,8.07
2023-05-06T19:29:27.069Z,8.15
2023-05-06T19:31:55.577Z,6.50
2023-05-06T19:34:25.083Z,7.35
2023-05-06T19:36:57.323Z,6.75
2023-05-06T19:39:27.929Z,9.52
2023-05-06T19:41:57.790Z,6.70
2023-05-06T19:44:28.375Z,7.60
2023-05-06T19:46:57.777Z,9.93
2023-05-06T19:49:27.372Z,7.82
2023-05-06T19:51:59.419Z,9.70
2023-05-06T19:54:28.016Z,9.10
2023-05-06T19:56:57.485Z,7.28
2023-05-06T19:59:26.988Z,7.38
2023-05-06T20:02:01.717Z,8.30
2023-05-06T20:04:31.410Z,10.32
2023-05-06T20:07:02.198Z,8.27
2023-05-06T20:09:30.573Z,10.65
2023-05-06T20:14:27.128Z,7.78
2023-05-06T20:16:57.698Z,8.32
2023-05-06T20:19:29.470Z,11.23
2023-05-06T20:22:00.704Z,9.20
2023-05-06T20:24:32.058Z,8.77
2023-05-06T20:27:01.805Z,8.82
2023-05-06T20:29:32.116Z,8.57
2023-05-06T20:32:02.923Z,9.93
2023-05-06T20:34:32.620Z,6.80
2023-05-06T20:37:02.368Z,8.50
2023-05-06T20:39:31.660Z,8.30
2023-05-06T20:41:59.950Z,10.10
2023-05-06T20:44:29.561Z,9.48
2023-05-06T20:46:57.616Z,7.93
2023-05-06T20:49:25.818Z,9.05
2023-05-06T20:51:54.021Z,8.05
2023-05-06T20:54:23.695Z,6.47
2023-05-06T20:56:53.185Z,7.32
2023-05-06T20:59:23.000Z,7.65
2023-05-06T21:01:53.965Z,6.07
2023-05-06T21:04:23.614Z,4.22
2023-05-06T21:06:54.188Z,6.20
2023-05-06T21:09:23.696Z,6.45
2023-05-06T21:11:53.016Z,5.82
2023-05-06T21:14:21.171Z,6.63
2023-05-06T21:16:50.548Z,4.60
2023-05-06T21:19:20.620Z,5.35
2023-05-06T21:21:48.757Z,4.43
2023-05-06T21:24:18.411Z,4.93
2023-05-06T21:26:49.109Z,4.88
2023-05-06T21:29:18.369Z,3.85
2023-05-06T21:31:46.511Z,4.35
2023-05-06T21:34:14.747Z,4.55
2023-05-06T21:36:42.837Z,4.95
2023-05-06T21:39:15.930Z,5.28
2023-05-06T21:41:45.491Z,5.97
2023-05-06T21:46:45.478Z,7.57
2023-05-06T21:49:16.046Z,5.25
2023-05-06T21:51:44.202Z,6.63
2023-05-06T21:54:14.716Z,7.10
2023-05-06T21:56:42.778Z,6.45
2023-05-06T21:59:12.335Z,6.38
2023-05-06T22:01:44.373Z,7.43
2023-05-06T22:04:14.912Z,8.65
2023-05-06T22:06:44.314Z,9.95
2023-05-06T22:09:13.649Z,6.60
2023-05-06T22:11:41.909Z,5.13
2023-05-06T22:14:11.185Z,4.45
2023-05-06T22:16:44.027Z,5.38
2023-05-06T22:19:13.036Z,4.82
2023-05-06T22:21:42.594Z,5.25
2023-05-06T22:24:10.772Z,6.22
2023-05-06T22:26:40.230Z,4.78
2023-05-06T22:29:09.524Z,7.80
2023-05-06T22:31:38.987Z,5.80
2023-05-06T22:34:08.679Z,7.32
2023-05-06T22:36:39.672Z,6.97
2023-05-06T22:39:10.332Z,7.00
2023-05-06T22:41:41.460Z,8.80
2023-05-06T22:44:09.632Z,7.28
2023-05-06T22:46:38.932Z,10.93
2023-05-06T22:49:09.690Z,8.90
2023-05-06T22:51:39.257Z,9.80
2023-05-06T22:56:35.700Z,6.63
2023-05-06T22:59:05.518Z,11.32
2023-05-06T23:01:34.906Z,9.32
2023-05-06T23:04:05.698Z,9.77
2023-05-06T23:06:36.647Z,9.15
2023-05-06T23:09:06.661Z,12.65
2023-05-06T23:11:37.198Z,11.90
2023-05-06T23:14:07.477Z,12.02
2023-05-06T23:16:37.057Z,12.65
2023-05-06T23:19:06.652Z,9.95
2023-05-06T23:24:07.124Z,13.15
2023-05-06T23:26:37.821Z,17.02
2023-05-06T23:29:07.424Z,16.08
2023-05-06T23:34:04.876Z,13.98
2023-05-06T23:36:37.929Z,20.92
2023-05-06T23:39:06.055Z,18.15
2023-05-06T23:41:36.628Z,15.55
2023-05-06T23:44:05.260Z,15.82
2023-05-06T23:46:35.039Z,14.75
2023-05-06T23:49:05.873Z,19.15
2023-05-06T23:51:34.034Z,16.70
2023-05-06T23:54:04.837Z,16.13
2023-05-06T23:56:33.133Z,17.65
2023-05-06T23:59:02.844Z,18.83
